createdAt,value
2022-09-20T00:00:58.232Z,28.8
2022-09-20T00:02:01.103Z,29.2
2022-09-20T00:03:03.330Z,29
2022-09-20T00:04:05.975Z,28.8
2022-09-20T00:05:09.451Z,28.9
2022-09-20T00:06:12.354Z,29.2
2022-09-20T00:07:14.847Z,28.8
2022-09-20T00:08:17.039Z,28.8
2022-09-20T00:09:19.233Z,28.8
2022-09-20T00:10:21.698Z,28.9
2022-09-20T00:11:23.924Z,28.7
2022-09-20T00:12:25.832Z,28.9
2022-09-20T00:13:28.058Z,28.6
2022-09-20T00:14:30.299Z,28.8
2022-09-20T00:15:32.773Z,29
2022-09-20T00:16:35.037Z,28.9
2022-09-20T00:17:37.760Z,29.2
2022-09-20T00:18:39.666Z,29.1
2022-09-20T00:19:42.164Z,29.3
2022-09-20T00:20:44.342Z,28.7
2022-09-20T00:21:46.809Z,29.1
2022-09-20T00:22:49.039Z,28.9
2022-09-20T00:23:51.500Z,29
2022-09-20T00:24:53.969Z,29.1
2022-09-20T00:25:56.144Z,28.9
2022-09-20T00:26:58.371Z,29.1
2022-09-20T00:28:00.830Z,29.3
2022-09-20T00:29:03.303Z,29.1
2022-09-20T00:30:05.837Z,29
2022-09-20T00:31:08.043Z,29.3
2022-09-20T00:32:10.604Z,29.3
2022-09-20T00:33:13.530Z,29.1
2022-09-20T00:34:16.019Z,29.1
2022-09-20T00:35:17.962Z,29.2
2022-09-20T00:36:20.453Z,29.3
2022-09-20T00:37:22.364Z,29.2
2022-09-20T00:38:24.580Z,29
2022-09-20T00:39:27.065Z,28.9
2022-09-20T00:40:29.691Z,28.9
2022-09-20T00:41:32.503Z,29.1
2022-09-20T00:42:34.718Z,29.3
2022-09-20T00:43:37.194Z,28.9
2022-09-20T00:44:39.667Z,29.1
2022-09-20T00:45:42.248Z,29
2022-09-20T00:46:44.994Z,29.2
2022-09-20T00:47:47.222Z,29.4
2022-09-20T00:48:49.416Z,28.9
2022-09-20T00:49:51.894Z,29.3
2022-09-20T00:50:54.368Z,29.1
2022-09-20T00:51:56.846Z,29
2022-09-20T00:52:59.306Z,28.8
2022-09-20T00:54:01.510Z,29.2
2022-09-20T00:55:03.982Z,29.4
2022-09-20T00:56:06.465Z,29.2
2022-09-20T00:57:08.934Z,29.3
2022-09-20T00:58:11.426Z,29.2
2022-09-20T00:59:13.604Z,28.8
2022-09-20T01:00:15.535Z,29.3
2022-09-20T01:01:17.546Z,29.1
2022-09-20T01:02:20.505Z,29.3
2022-09-20T01:03:23.143Z,29.2
2022-09-20T01:04:25.092Z,29.1
2022-09-20T01:05:27.265Z,29
2022-09-20T01:06:29.441Z,29.3
2022-09-20T01:07:31.915Z,29.1
2022-09-20T01:08:34.390Z,29.1
2022-09-20T01:09:36.620Z,29.2
2022-09-20T01:10:39.102Z,29
2022-09-20T01:11:41.566Z,28.9
2022-09-20T01:12:43.766Z,29.1
2022-09-20T01:13:45.969Z,29.3
2022-09-20T01:14:48.164Z,29
2022-09-20T01:15:50.375Z,28.9
2022-09-20T01:16:53.119Z,29.1
2022-09-20T01:17:55.784Z,29.2
2022-09-20T01:18:58.266Z,29.4
2022-09-20T01:20:00.450Z,29
2022-09-20T01:21:02.647Z,29.1
2022-09-20T01:22:05.120Z,29
2022-09-20T01:23:07.316Z,29.1
2022-09-20T01:24:09.518Z,29.3
2022-09-20T01:25:11.746Z,29.1
2022-09-20T01:26:14.222Z,28.9
2022-09-20T01:27:16.718Z,29.4
2022-09-20T01:28:18.902Z,29
2022-09-20T01:29:21.405Z,29.2
2022-09-20T01:30:23.614Z,29.3
2022-09-20T01:31:26.188Z,29.1
2022-09-20T01:32:28.889Z,29
2022-09-20T01:33:30.552Z,29.4
2022-09-20T01:34:33.023Z,29.3
2022-09-20T01:35:35.204Z,29.4
2022-09-20T01:36:37.714Z,29.3
2022-09-20T01:37:40.187Z,29.4
2022-09-20T01:38:42.664Z,29.1
2022-09-20T01:39:44.854Z,29.2
2022-09-20T01:40:47.402Z,29.1
2022-09-20T01:41:49.796Z,29.3
2022-09-20T01:42:52.003Z,29.2
2022-09-20T01:43:54.483Z,29.4
2022-09-20T01:44:57.185Z,29.4
2022-09-20T01:45:59.713Z,29.4
2022-09-20T01:47:02.158Z,29.3
2022-09-20T01:48:04.899Z,29.5
2022-09-20T01:49:07.520Z,29.4
2022-09-20T01:50:09.718Z,29.4
2022-09-20T01:51:11.923Z,29.6
2022-09-20T01:52:14.096Z,29.1
2022-09-20T01:53:16.563Z,29.3
2022-09-20T01:54:18.761Z,29.3
2022-09-20T01:55:21.230Z,29.3
2022-09-20T01:56:22.903Z,29.2
2022-09-20T01:57:27.280Z,29.4
2022-09-20T01:58:29.793Z,29.4
2022-09-20T01:59:32.104Z,29.3
2022-09-20T02:00:34.586Z,29.4
2022-09-20T02:01:37.136Z,29.3
2022-09-20T02:02:40.085Z,29.4
2022-09-20T02:03:42.938Z,29.3
2022-09-20T02:04:44.883Z,29.5
2022-09-20T02:05:47.058Z,29.6
2022-09-20T02:06:49.526Z,29.2
2022-09-20T02:07:51.449Z,29.4
2022-09-20T02:08:53.666Z,29.2
2022-09-20T02:09:56.003Z,29.4
2022-09-20T02:10:58.501Z,29.5
2022-09-20T02:12:01.004Z,29.2
2022-09-20T02:13:03.480Z,29.5
2022-09-20T02:14:06.088Z,29.3
2022-09-20T02:15:08.924Z,29.3
2022-09-20T02:16:11.506Z,29.2
2022-09-20T02:17:14.168Z,29.2
2022-09-20T02:18:16.638Z,29.4
2022-09-20T02:19:18.901Z,29.4
2022-09-20T02:20:21.377Z,29.4
2022-09-20T02:21:23.879Z,29.3
2022-09-20T02:22:25.512Z,29.1
2022-09-20T02:23:27.981Z,29.5
2022-09-20T02:24:30.461Z,29.5
2022-09-20T02:25:32.661Z,29.3
2022-09-20T02:26:35.136Z,29.5
2022-09-20T02:27:37.354Z,29.4
2022-09-20T02:28:39.244Z,29.3
2022-09-20T02:29:41.720Z,29.2
2022-09-20T02:30:43.893Z,29.6
2022-09-20T02:31:46.405Z,29.5
2022-09-20T02:32:49.364Z,29.2
2022-09-20T02:33:51.916Z,29.5
2022-09-20T02:34:54.561Z,29.3
2022-09-20T02:35:57.039Z,29.2
2022-09-20T02:36:59.250Z,29.2
2022-09-20T02:38:01.448Z,29.3
2022-09-20T02:39:03.917Z,29.5
2022-09-20T02:40:06.170Z,29.5
2022-09-20T02:41:08.886Z,29.5
2022-09-20T02:42:11.089Z,29.2
2022-09-20T02:43:13.584Z,29.1
2022-09-20T02:44:15.753Z,29.4
2022-09-20T02:45:17.945Z,29.4
2022-09-20T02:46:20.228Z,29.2
2022-09-20T02:47:23.236Z,29.3
2022-09-20T02:48:25.778Z,29.5
2022-09-20T02:49:28.240Z,29.4
2022-09-20T02:50:30.788Z,29.3
2022-09-20T02:51:32.994Z,29.4
2022-09-20T02:52:35.466Z,29.4
2022-09-20T02:53:37.677Z,29.3
2022-09-20T02:54:39.597Z,29.3
2022-09-20T02:55:42.068Z,29.4
2022-09-20T02:56:44.536Z,29.2
2022-09-20T02:57:47.012Z,29.3
2022-09-20T02:58:49.210Z,29.2
2022-09-20T02:59:51.405Z,29.2
2022-09-20T03:00:53.644Z,29.4
2022-09-20T03:01:56.557Z,29.3
2022-09-20T03:02:58.737Z,29.3
2022-09-20T03:04:01.207Z,29.4
2022-09-20T03:05:03.675Z,29.3
2022-09-20T03:06:06.208Z,29.1
2022-09-20T03:07:08.383Z,29.2
2022-09-20T03:08:10.853Z,28.9
2022-09-20T03:09:13.318Z,29.5
2022-09-20T03:10:15.791Z,29.1
2022-09-20T03:11:18.260Z,29.2
2022-09-20T03:12:20.451Z,29.3
2022-09-20T03:13:22.922Z,29
2022-09-20T03:14:24.876Z,29
2022-09-20T03:15:27.066Z,29
2022-09-20T03:16:29.656Z,29.5
2022-09-20T03:17:32.422Z,29.1
2022-09-20T03:18:34.913Z,28.8
2022-09-20T03:19:37.102Z,28.6
2022-09-20T03:20:39.297Z,28.7
2022-09-20T03:21:41.870Z,28.7
2022-09-20T03:22:43.526Z,28.7
2022-09-20T03:23:45.988Z,28.7
2022-09-20T03:24:48.200Z,28.8
2022-09-20T03:25:50.670Z,29.2
2022-09-20T03:26:52.291Z,28.7
2022-09-20T03:27:54.486Z,29
2022-09-20T03:28:56.958Z,28.9
2022-09-20T03:29:59.508Z,28.8
2022-09-20T03:31:01.737Z,28.8
2022-09-20T03:32:04.363Z,28.7
2022-09-20T03:33:07.190Z,28.5
2022-09-20T03:34:09.681Z,28.6
2022-09-20T03:35:12.165Z,28.4
2022-09-20T03:36:14.349Z,28.5
2022-09-20T03:37:16.878Z,29
2022-09-20T03:38:19.345Z,28.9
2022-09-20T03:39:21.815Z,29.1
2022-09-20T03:40:24.346Z,28.7
2022-09-20T03:41:27.319Z,28.6
2022-09-20T03:42:29.514Z,29
2022-09-20T03:43:31.425Z,28.8
2022-09-20T03:44:33.900Z,28.4
2022-09-20T03:45:36.166Z,28.5
2022-09-20T03:46:38.621Z,28.9
2022-09-20T03:47:41.100Z,28.7
2022-09-20T03:48:43.311Z,28.7
2022-09-20T03:49:45.812Z,28.5
2022-09-20T03:50:48.282Z,28.7
2022-09-20T03:51:50.474Z,28.8
2022-09-20T03:52:53.007Z,28.9
2022-09-20T03:53:55.504Z,28.9
2022-09-20T03:54:57.871Z,28.6
2022-09-20T03:56:00.349Z,28.8
2022-09-20T03:57:02.823Z,28.9
2022-09-20T03:58:08.685Z,28.8
2022-09-20T03:59:10.296Z,28.8
2022-09-20T04:00:12.485Z,28.5
2022-09-20T04:01:14.793Z,28.8
2022-09-20T04:02:17.466Z,28.5
2022-09-20T04:03:19.912Z,28.5
2022-09-20T04:04:22.382Z,28.8
2022-09-20T04:05:24.612Z,28.8
2022-09-20T04:06:26.821Z,28.7
2022-09-20T04:07:29.293Z,28.7
2022-09-20T04:08:31.810Z,28.6
2022-09-20T04:09:37.307Z,28.6
2022-09-20T04:10:39.762Z,28.7
2022-09-20T04:11:42.246Z,28.5
2022-09-20T04:12:44.731Z,28.6
2022-09-20T04:13:47.200Z,28.3
2022-09-20T04:14:49.668Z,28.6
2022-09-20T04:15:52.150Z,28.5
2022-09-20T04:16:54.679Z,28.7
2022-09-20T04:17:57.295Z,28.5
2022-09-20T04:18:59.472Z,28.4
2022-09-20T04:20:01.957Z,28.3
2022-09-20T04:21:04.183Z,28.6
2022-09-20T04:22:06.376Z,28.3
2022-09-20T04:23:08.319Z,28.5
2022-09-20T04:24:10.849Z,28.5
2022-09-20T04:25:13.055Z,28.5
2022-09-20T04:26:15.230Z,28.8
2022-09-20T04:27:17.698Z,28.7
2022-09-20T04:28:19.909Z,28.8
2022-09-20T04:29:22.090Z,28.5
2022-09-20T04:30:24.572Z,28.5
2022-09-20T04:31:26.836Z,28.3
2022-09-20T04:32:29.543Z,28.6
2022-09-20T04:33:31.704Z,28.6
2022-09-20T04:34:34.184Z,28.7
2022-09-20T04:35:36.655Z,28.4
2022-09-20T04:36:38.873Z,28.7
2022-09-20T04:37:41.348Z,28.6
2022-09-20T04:38:43.516Z,28.9
2022-09-20T04:39:46.042Z,28.4
2022-09-20T04:40:48.564Z,28.8
2022-09-20T04:41:51.188Z,28.4
2022-09-20T04:42:53.385Z,28.2
2022-09-20T04:43:55.856Z,28.4
2022-09-20T04:44:58.344Z,28.2
2022-09-20T04:46:00.900Z,28.8
2022-09-20T04:47:03.858Z,28.1
2022-09-20T04:48:06.363Z,28.7
2022-09-20T04:49:08.829Z,28.3
2022-09-20T04:50:11.307Z,28.8
2022-09-20T04:51:13.997Z,28.5
2022-09-20T04:52:16.488Z,28.2
2022-09-20T04:53:18.971Z,28.2
2022-09-20T04:54:21.155Z,28.7
2022-09-20T04:55:23.686Z,28.5
2022-09-20T04:56:25.880Z,28.5
2022-09-20T04:57:28.353Z,28.6
2022-09-20T04:58:30.821Z,28.4
2022-09-20T04:59:33.018Z,28.3
2022-09-20T05:00:35.218Z,28.2
2022-09-20T05:01:37.764Z,28.4
2022-09-20T05:02:40.448Z,28.3
2022-09-20T05:03:43.379Z,28.3
2022-09-20T05:04:45.850Z,28.3
2022-09-20T05:05:48.327Z,28.3
2022-09-20T05:06:50.507Z,28.4
2022-09-20T05:07:52.996Z,28.3
2022-09-20T05:08:58.710Z,28.3
2022-09-20T05:10:00.463Z,28.4
2022-09-20T05:11:03.001Z,28.4
2022-09-20T05:12:05.470Z,28.3
2022-09-20T05:13:07.668Z,28.6
2022-09-20T05:14:10.137Z,28.5
2022-09-20T05:15:12.338Z,28.7
2022-09-20T05:16:14.831Z,28.2
2022-09-20T05:17:17.458Z,28.4
2022-09-20T05:18:19.665Z,28.5
2022-09-20T05:19:22.175Z,28.4
2022-09-20T05:20:24.654Z,28.5
2022-09-20T05:21:26.863Z,28.3
2022-09-20T05:22:29.066Z,28.5
2022-09-20T05:23:31.281Z,28.5
2022-09-20T05:24:33.765Z,28.4
2022-09-20T05:25:35.958Z,28.4
2022-09-20T05:26:38.490Z,28.5
2022-09-20T05:27:40.994Z,28.3
2022-09-20T05:28:42.904Z,28.3
2022-09-20T05:29:45.105Z,28.5
2022-09-20T05:30:47.584Z,28.5
2022-09-20T05:31:49.833Z,28.2
2022-09-20T05:32:52.651Z,28.3
2022-09-20T05:33:54.827Z,28.4
2022-09-20T05:34:57.393Z,28.2
2022-09-20T05:35:59.571Z,28.5
2022-09-20T05:37:01.483Z,28.4
2022-09-20T05:38:03.957Z,28.4
2022-09-20T05:39:06.180Z,28.5
2022-09-20T05:40:08.706Z,28.4
2022-09-20T05:41:11.401Z,28.1
2022-09-20T05:42:13.674Z,28.3
2022-09-20T05:43:15.343Z,28.4
2022-09-20T05:44:17.541Z,28.1
2022-09-20T05:45:20.031Z,28.3
2022-09-20T05:46:22.228Z,28.3
2022-09-20T05:47:24.437Z,28.2
2022-09-20T05:48:26.634Z,28.3
2022-09-20T05:49:28.577Z,28.4
2022-09-20T05:50:31.067Z,28.1
2022-09-20T05:51:33.268Z,28.3
2022-09-20T05:52:35.732Z,28.2
2022-09-20T05:53:38.213Z,28.1
2022-09-20T05:54:40.437Z,28.3
2022-09-20T05:55:42.642Z,28.2
2022-09-20T05:56:44.865Z,28.1
2022-09-20T05:57:47.126Z,28.2
2022-09-20T05:58:49.032Z,28.4
2022-09-20T05:59:51.231Z,28.4
2022-09-20T06:00:53.196Z,28.2
2022-09-20T06:01:55.915Z,28.4
2022-09-20T06:02:58.406Z,28.4
2022-09-20T06:04:00.603Z,28.3
2022-09-20T06:05:03.081Z,28.3
2022-09-20T06:06:05.576Z,28.3
2022-09-20T06:07:08.062Z,28.5
2022-09-20T06:08:09.726Z,28.4
2022-09-20T06:09:11.963Z,28.4
2022-09-20T06:10:14.478Z,28.3
2022-09-20T06:11:16.689Z,28.1
2022-09-20T06:12:18.655Z,28
2022-09-20T06:13:21.225Z,28.3
2022-09-20T06:14:23.442Z,28.2
2022-09-20T06:15:25.381Z,28.5
2022-09-20T06:16:27.373Z,28.4
2022-09-20T06:17:29.892Z,28.4
2022-09-20T06:18:32.798Z,28.4
2022-09-20T06:19:35.412Z,28.1
2022-09-20T06:20:37.966Z,28.5
2022-09-20T06:21:40.514Z,28.5
2022-09-20T06:22:42.724Z,28.4
2022-09-20T06:23:45.218Z,28.3
2022-09-20T06:24:47.731Z,28.2
2022-09-20T06:25:50.258Z,28.4
2022-09-20T06:26:52.750Z,28.4
2022-09-20T06:27:55.227Z,28.3
2022-09-20T06:28:58.575Z,28.5
2022-09-20T06:30:01.174Z,28.4
2022-09-20T06:31:03.536Z,28.3
2022-09-20T06:32:06.443Z,28.3
2022-09-20T06:33:08.690Z,28.4
2022-09-20T06:34:11.203Z,28.3
2022-09-20T06:35:13.683Z,28.3
2022-09-20T06:36:15.908Z,28.3
2022-09-20T06:37:17.850Z,28.4
2022-09-20T06:38:20.368Z,28.1
2022-09-20T06:39:22.550Z,28.2
2022-09-20T06:40:25.108Z,28.4
2022-09-20T06:41:28.055Z,28.4
2022-09-20T06:42:30.563Z,28.2
2022-09-20T06:43:32.497Z,28.3
2022-09-20T06:44:34.796Z,28.3
2022-09-20T06:45:37.304Z,28.1
2022-09-20T06:46:39.977Z,28.3
2022-09-20T06:47:42.463Z,28.2
2022-09-20T06:48:44.689Z,28.4
2022-09-20T06:49:47.194Z,28.4
2022-09-20T06:50:49.706Z,28.3
2022-09-20T06:51:52.188Z,28.6
2022-09-20T06:52:54.692Z,28.3
2022-09-20T06:53:56.960Z,28.5
2022-09-20T06:54:59.444Z,28.3
2022-09-20T06:56:00.802Z,28.3
2022-09-20T06:57:03.006Z,28.4
2022-09-20T06:58:05.219Z,28.4
2022-09-20T06:59:07.723Z,28.5
2022-09-20T07:00:10.411Z,28.4
2022-09-20T07:01:12.623Z,28.3
2022-09-20T07:02:19.642Z,28.5
2022-09-20T07:03:22.235Z,28.2
2022-09-20T07:04:24.180Z,28.2
2022-09-20T07:05:26.686Z,28.2
2022-09-20T07:06:28.897Z,28.5
2022-09-20T07:07:30.828Z,28.5
2022-09-20T07:08:33.341Z,28.2
2022-09-20T07:09:35.827Z,28.3
2022-09-20T07:10:38.079Z,28.3
2022-09-20T07:11:40.273Z,28.2
2022-09-20T07:12:42.521Z,28.3
2022-09-20T07:13:44.992Z,28.2
2022-09-20T07:14:47.210Z,28.3
2022-09-20T07:15:49.778Z,28.1
2022-09-20T07:16:52.025Z,28.2
2022-09-20T07:17:54.488Z,28.3
2022-09-20T07:18:57.084Z,28.2
2022-09-20T07:19:59.293Z,28.2
2022-09-20T07:21:01.682Z,28.2
2022-09-20T07:22:04.165Z,27.9
2022-09-20T07:23:06.405Z,28.2
2022-09-20T07:24:08.693Z,28.3
2022-09-20T07:25:11.167Z,28.2
2022-09-20T07:26:13.377Z,28.3
2022-09-20T07:27:15.584Z,28.1
2022-09-20T07:28:18.078Z,28
2022-09-20T07:29:20.562Z,28.3
2022-09-20T07:30:23.125Z,28.2
2022-09-20T07:31:25.808Z,28.3
2022-09-20T07:32:28.365Z,28
2022-09-20T07:33:30.614Z,28.3
2022-09-20T07:34:33.121Z,28.2
2022-09-20T07:35:35.942Z,28.1
2022-09-20T07:36:37.924Z,28.1
2022-09-20T07:37:40.399Z,28.2
2022-09-20T07:38:42.385Z,28.3
2022-09-20T07:39:44.898Z,28.1
2022-09-20T07:40:47.283Z,28.3
2022-09-20T07:41:49.203Z,28.2
2022-09-20T07:42:55.559Z,28.2
2022-09-20T07:43:56.724Z,28.3
2022-09-20T07:44:59.245Z,28.2
2022-09-20T07:46:01.775Z,28.3
2022-09-20T07:47:04.558Z,28.3
2022-09-20T07:48:06.773Z,28.1
2022-09-20T07:49:08.968Z,28.3
2022-09-20T07:50:11.461Z,28.1
2022-09-20T07:51:13.686Z,28.2
2022-09-20T07:52:15.902Z,28.2
2022-09-20T07:53:18.382Z,28.1
2022-09-20T07:54:20.865Z,28
2022-09-20T07:55:23.102Z,28.1
2022-09-20T07:56:25.580Z,28.3
2022-09-20T07:57:28.081Z,27.9
2022-09-20T07:58:30.577Z,28.1
2022-09-20T07:59:32.775Z,28.1
2022-09-20T08:00:35.273Z,27.9
2022-09-20T08:01:37.506Z,28.1
2022-09-20T08:02:40.121Z,28.4
2022-09-20T08:03:42.817Z,28.1
2022-09-20T08:04:44.770Z,28
2022-09-20T08:05:47.260Z,27.7
2022-09-20T08:06:49.759Z,28.1
2022-09-20T08:07:52.246Z,28.2
2022-09-20T08:08:54.478Z,28.1
2022-09-20T08:09:57.163Z,28.2
2022-09-20T08:10:59.178Z,28.4
2022-09-20T08:14:05.038Z,28.2
2022-09-20T08:14:11.088Z,28.2
2022-09-20T08:15:13.025Z,28.1
2022-09-20T08:16:15.623Z,28
2022-09-20T08:17:18.056Z,28.1
2022-09-20T08:18:20.604Z,28.3
2022-09-20T08:19:23.095Z,28.2
2022-09-20T08:20:25.306Z,28.4
2022-09-20T08:21:27.789Z,28
2022-09-20T08:22:30.036Z,28.1
2022-09-20T08:23:32.240Z,28.1
2022-09-20T08:24:34.449Z,28.1
2022-09-20T08:25:36.654Z,28.2
2022-09-20T08:26:38.860Z,28.3
2022-09-20T08:27:41.330Z,28.2
2022-09-20T08:28:43.822Z,28.2
2022-09-20T08:29:46.043Z,28.4
2022-09-20T08:30:48.571Z,28.1
2022-09-20T08:31:51.085Z,28.4
2022-09-20T08:32:53.858Z,28.2
2022-09-20T08:33:56.436Z,28.1
2022-09-20T08:34:58.946Z,28.1
2022-09-20T08:36:01.154Z,28.3
2022-09-20T08:37:03.652Z,28.2
2022-09-20T08:40:16.175Z,28.1
2022-09-20T08:41:18.697Z,28.1
2022-09-20T08:42:20.953Z,28.4
2022-09-20T08:43:23.452Z,28.3
2022-09-20T08:44:26.004Z,28.2
2022-09-20T08:45:35.495Z,28.1
2022-09-20T08:46:32.982Z,28.5
2022-09-20T08:47:35.855Z,28.1
2022-09-20T08:48:38.430Z,28
2022-09-20T08:49:45.745Z,28
2022-09-20T08:50:45.951Z,28.2
2022-09-20T08:51:48.526Z,28.3
2022-09-20T08:52:51.194Z,28.1
2022-09-20T08:53:53.118Z,28.1
2022-09-20T08:54:55.326Z,28.1
2022-09-20T08:55:57.797Z,28.1
2022-09-20T08:56:59.996Z,28.3
2022-09-20T08:58:06.267Z,28.1
2022-09-20T08:59:07.175Z,28.3
2022-09-20T09:00:09.643Z,28
2022-09-20T09:01:11.579Z,28.4
2022-09-20T09:02:14.521Z,28.1
2022-09-20T09:03:17.311Z,28.2
2022-09-20T09:04:19.787Z,28.1
2022-09-20T09:05:22.322Z,28.3
2022-09-20T09:06:24.827Z,28.1
2022-09-20T09:07:27.319Z,28.2
2022-09-20T09:08:29.255Z,28
2022-09-20T09:09:37.445Z,28.3
2022-09-20T09:10:42.464Z,27.8
2022-09-20T09:11:45.649Z,27.9
2022-09-20T09:12:48.559Z,28.4
2022-09-20T09:13:50.888Z,28.3
2022-09-20T09:14:53.609Z,28.1
2022-09-20T09:15:55.597Z,28
2022-09-20T09:16:58.084Z,28.2
2022-09-20T09:18:00.726Z,28.2
2022-09-20T09:19:03.225Z,28.2
2022-09-20T09:20:05.680Z,28.2
2022-09-20T09:21:08.279Z,28.2
2022-09-20T09:22:10.748Z,28.3
2022-09-20T09:23:12.406Z,28.1
2022-09-20T09:24:14.886Z,28.2
2022-09-20T09:25:17.379Z,28.2
2022-09-20T09:26:19.868Z,28
2022-09-20T09:27:22.416Z,28.2
2022-09-20T09:28:24.595Z,28
2022-09-20T09:29:26.829Z,28
2022-09-20T09:30:32.299Z,28.3
2022-09-20T09:31:34.273Z,28.3
2022-09-20T09:32:36.898Z,28.4
2022-09-20T09:33:39.156Z,28.1
2022-09-20T09:34:41.686Z,28
2022-09-20T09:35:43.980Z,28.3
2022-09-20T09:36:46.585Z,28
2022-09-20T09:37:49.094Z,28
2022-09-20T09:38:51.579Z,28.2
2022-09-20T09:39:54.076Z,28.5
2022-09-20T09:40:56.575Z,28.3
2022-09-20T09:41:58.748Z,28.2
2022-09-20T09:43:00.985Z,28.1
2022-09-20T09:44:03.461Z,28.3
2022-09-20T09:45:05.962Z,28.1
2022-09-20T09:46:08.527Z,28.2
2022-09-20T09:47:11.302Z,28
2022-09-20T09:48:13.501Z,28.2
2022-09-20T09:49:16.214Z,28.2
2022-09-20T09:50:18.928Z,28.1
2022-09-20T09:51:21.138Z,28.2
2022-09-20T09:52:23.694Z,28.3
2022-09-20T09:53:26.213Z,28.1
2022-09-20T09:54:28.118Z,28.1
2022-09-20T09:55:30.323Z,28.2
2022-09-20T09:56:32.534Z,28.1
2022-09-20T09:57:34.177Z,28
2022-09-20T09:58:36.652Z,28.2
2022-09-20T09:59:39.141Z,28
2022-09-20T10:00:41.665Z,28.1
2022-09-20T10:01:44.249Z,28.2
2022-09-20T10:02:46.849Z,28.3
2022-09-20T10:03:49.323Z,28.1
2022-09-20T10:04:51.815Z,28.3
2022-09-20T10:05:53.762Z,28.2
2022-09-20T10:06:55.699Z,28
2022-09-20T10:07:58.007Z,28.3
2022-09-20T10:09:00.185Z,28.1
2022-09-20T10:10:02.664Z,28.2
2022-09-20T10:11:04.864Z,28.4
2022-09-20T10:12:07.098Z,28.2
2022-09-20T10:13:10.058Z,28.2
2022-09-20T10:14:12.610Z,28.2
2022-09-20T10:15:14.853Z,28.2
2022-09-20T10:16:16.813Z,28.3
2022-09-20T10:17:19.599Z,28.2
2022-09-20T10:18:21.528Z,28
2022-09-20T10:19:23.998Z,28.2
2022-09-20T10:20:26.204Z,28.3
2022-09-20T10:21:28.126Z,28.2
2022-09-20T10:22:30.300Z,28
2022-09-20T10:23:58.922Z,28.1
2022-09-20T10:24:37.352Z,28.3
2022-09-20T10:25:39.285Z,28.1
2022-09-20T10:26:41.769Z,28
2022-09-20T10:27:43.988Z,27.9
2022-09-20T10:28:46.208Z,28.2
2022-09-20T10:29:48.551Z,28.1
2022-09-20T10:30:51.158Z,28.1
2022-09-20T10:31:54.109Z,28.3
2022-09-20T10:32:56.623Z,27.9
2022-09-20T10:33:59.212Z,28.2
2022-09-20T10:35:01.479Z,28.1
2022-09-20T10:36:03.951Z,28.1
2022-09-20T10:37:06.673Z,28.1
2022-09-20T10:38:08.950Z,28
2022-09-20T10:39:11.266Z,28.1
2022-09-20T10:40:13.559Z,28.2
2022-09-20T10:41:16.872Z,28.3
2022-09-20T10:42:19.059Z,28.3
2022-09-20T10:43:21.033Z,27.9
2022-09-20T10:44:23.204Z,27.9
2022-09-20T10:45:53.591Z,28.3
2022-09-20T10:46:32.908Z,28.1
2022-09-20T10:47:35.398Z,28.1
2022-09-20T10:48:37.601Z,28.2
2022-09-20T10:49:39.814Z,28.1
2022-09-20T10:50:42.297Z,28.1
2022-09-20T10:51:44.798Z,27.7
2022-09-20T10:52:47.362Z,28
2022-09-20T10:53:49.583Z,28.2
2022-09-20T10:54:52.152Z,28.3
2022-09-20T10:55:54.384Z,28.1
2022-09-20T10:56:56.915Z,27.7
2022-09-20T10:57:59.576Z,28.1
2022-09-20T10:59:02.166Z,28
2022-09-20T11:00:04.361Z,27.9
2022-09-20T11:01:06.314Z,28
2022-09-20T11:02:08.854Z,28.1
2022-09-20T11:03:11.459Z,28.1
2022-09-20T11:04:13.938Z,28.1
2022-09-20T11:05:15.848Z,28
2022-09-20T11:06:18.053Z,27.7
2022-09-20T11:07:20.251Z,27.9
2022-09-20T11:08:22.774Z,28.1
2022-09-20T11:09:25.000Z,28.1
2022-09-20T11:10:27.576Z,28.1
2022-09-20T11:11:29.770Z,28.2
2022-09-20T11:12:32.252Z,27.8
2022-09-20T11:13:34.726Z,28
2022-09-20T11:14:36.358Z,28
2022-09-20T11:15:38.838Z,27.8
2022-09-20T11:16:41.378Z,28
2022-09-20T11:17:44.378Z,27.9
2022-09-20T11:18:46.336Z,28
2022-09-20T11:19:48.524Z,27.9
2022-09-20T11:20:50.724Z,28.1
2022-09-20T11:21:53.192Z,28.1
2022-09-20T11:22:55.733Z,28.1
2022-09-20T11:23:58.306Z,28
2022-09-20T11:25:00.782Z,28.3
2022-09-20T11:26:03.334Z,27.9
2022-09-20T11:27:05.537Z,28.2
2022-09-20T11:28:07.739Z,28
2022-09-20T11:29:10.046Z,27.8
2022-09-20T11:30:12.261Z,27.9
2022-09-20T11:31:14.478Z,28.2
2022-09-20T11:32:17.123Z,27.9
2022-09-20T11:33:19.717Z,27.9
2022-09-20T11:34:21.975Z,28.1
2022-09-20T11:35:24.503Z,27.8
2022-09-20T11:36:27.054Z,28.2
2022-09-20T11:37:29.278Z,28
2022-09-20T11:38:31.779Z,28
2022-09-20T11:39:34.088Z,28
2022-09-20T11:40:36.581Z,28
2022-09-20T11:41:39.339Z,28
2022-09-20T11:42:41.532Z,27.8
2022-09-20T11:43:44.042Z,28.2
2022-09-20T11:44:46.518Z,28.1
2022-09-20T11:45:48.775Z,27.9
2022-09-20T11:46:51.548Z,28.1
2022-09-20T11:47:55.437Z,28
2022-09-20T11:48:57.908Z,27.9
2022-09-20T11:50:00.429Z,27.9
2022-09-20T11:51:02.649Z,28.1
2022-09-20T11:52:05.132Z,28.1
2022-09-20T11:53:07.620Z,28.1
2022-09-20T11:54:09.821Z,27.8
2022-09-20T11:55:12.347Z,28
2022-09-20T11:56:14.571Z,28.1
2022-09-20T11:57:16.829Z,28.1
2022-09-20T11:58:19.293Z,28.2
2022-09-20T11:59:21.771Z,28.1
2022-09-20T12:00:23.974Z,27.9
2022-09-20T12:01:28.408Z,28.2
2022-09-20T12:02:31.428Z,28.1
2022-09-20T12:03:34.766Z,28.3
2022-09-20T12:04:37.401Z,28
2022-09-20T12:05:41.784Z,27.9
2022-09-20T12:06:43.991Z,28
2022-09-20T12:07:46.472Z,28.2
2022-09-20T12:08:48.947Z,27.9
2022-09-20T12:09:51.423Z,28
2022-09-20T12:10:53.929Z,28
2022-09-20T12:11:56.406Z,28.4
2022-09-20T12:12:58.944Z,28
2022-09-20T12:14:00.881Z,27.9
2022-09-20T12:15:03.410Z,28.2
2022-09-20T12:16:05.725Z,28.1
2022-09-20T12:17:08.278Z,28.1
2022-09-20T12:18:10.217Z,28.3
2022-09-20T12:19:12.123Z,28.1
2022-09-20T12:20:19.235Z,28
2022-09-20T12:21:19.634Z,28.4
2022-09-20T12:22:21.821Z,28.1
2022-09-20T12:23:24.312Z,28.1
2022-09-20T12:24:26.518Z,28.1
2022-09-20T12:25:29.000Z,28.1
2022-09-20T12:26:31.496Z,28.1
2022-09-20T12:27:33.696Z,28.2
2022-09-20T12:28:36.229Z,28
2022-09-20T12:29:38.136Z,28
2022-09-20T12:30:40.387Z,28.3
2022-09-20T12:31:42.886Z,28.1
2022-09-20T12:32:45.526Z,28.1
2022-09-20T12:33:48.001Z,28.2
2022-09-20T12:34:50.234Z,28.2
2022-09-20T12:35:52.720Z,28.1
2022-09-20T12:36:55.035Z,28
2022-09-20T12:37:57.506Z,27.9
2022-09-20T12:38:59.683Z,28
2022-09-20T12:40:01.946Z,28.3
2022-09-20T12:41:04.703Z,28.1
2022-09-20T12:42:06.711Z,28.1
2022-09-20T12:43:09.299Z,28.2
2022-09-20T12:44:11.887Z,28.2
2022-09-20T12:45:14.351Z,28
2022-09-20T12:46:16.889Z,28.3
2022-09-20T12:47:19.701Z,28.1
2022-09-20T12:48:21.910Z,27.9
2022-09-20T12:49:24.383Z,27.9
2022-09-20T12:50:26.573Z,28.1
2022-09-20T12:51:28.498Z,28
2022-09-20T12:52:30.780Z,28
2022-09-20T12:53:33.253Z,28.1
2022-09-20T12:54:35.750Z,28.2
2022-09-20T12:55:38.221Z,28.1
2022-09-20T12:56:39.876Z,28.1
2022-09-20T12:57:42.443Z,28.1
2022-09-20T12:58:44.952Z,28
2022-09-20T12:59:47.486Z,28.3
2022-09-20T13:00:50.009Z,28.2
2022-09-20T13:01:52.570Z,28.2
2022-09-20T13:02:55.298Z,28.1
2022-09-20T13:03:57.531Z,28.3
2022-09-20T13:05:00.009Z,28.3
2022-09-20T13:06:02.482Z,28
2022-09-20T13:07:04.726Z,28.3
2022-09-20T13:08:07.238Z,28.2
2022-09-20T13:09:09.705Z,28.2
2022-09-20T13:10:11.648Z,28.2
2022-09-20T13:11:14.126Z,28.1
2022-09-20T13:12:16.602Z,28.4
2022-09-20T13:13:18.871Z,28.1
2022-09-20T13:14:21.343Z,27.8
2022-09-20T13:15:23.890Z,28.1
2022-09-20T13:16:25.564Z,28.1
2022-09-20T13:17:28.300Z,28
2022-09-20T13:18:30.776Z,28.3
2022-09-20T13:19:33.257Z,28.4
2022-09-20T13:20:35.735Z,28.1
2022-09-20T13:21:38.219Z,28.2
2022-09-20T13:22:40.414Z,28.2
2022-09-20T13:23:42.815Z,28.3
2022-09-20T13:24:45.163Z,28.3
2022-09-20T13:25:47.087Z,28.3
2022-09-20T13:26:49.559Z,28.1
2022-09-20T13:27:51.727Z,28.2
2022-09-20T13:28:53.959Z,28.3
2022-09-20T13:29:56.253Z,28.1
2022-09-20T13:30:58.809Z,28.3
2022-09-20T13:32:01.297Z,28.1
2022-09-20T13:33:03.782Z,28.2
2022-09-20T13:34:06.078Z,28.1
2022-09-20T13:35:08.790Z,28.4
2022-09-20T13:36:10.987Z,28.2
2022-09-20T13:37:13.466Z,28
2022-09-20T13:38:15.965Z,28.2
2022-09-20T13:39:18.490Z,28.4
2022-09-20T13:40:21.019Z,28.3
2022-09-20T13:41:23.749Z,28.3
2022-09-20T13:42:26.220Z,28.3
2022-09-20T13:43:28.324Z,28.3
2022-09-20T13:44:30.533Z,28
2022-09-20T13:45:34.016Z,28.3
2022-09-20T13:46:37.039Z,28.3
2022-09-20T13:47:39.237Z,28.1
2022-09-20T13:48:41.725Z,28.2
2022-09-20T13:49:44.305Z,28.1
2022-09-20T13:50:49.109Z,28.2
2022-09-20T13:51:50.927Z,28.1
2022-09-20T13:52:52.874Z,28.1
2022-09-20T13:53:55.102Z,28.3
2022-09-20T13:54:57.319Z,28.3
2022-09-20T13:55:59.562Z,28.2
2022-09-20T13:57:01.832Z,28.1
2022-09-20T13:58:04.335Z,28.3
2022-09-20T13:59:06.805Z,28.3
2022-09-20T14:00:08.748Z,28.3